New Stream 2 — JD4055 — position and weather

sailwx.info

Track history (hours):
 
Tides and Currents Weather Stations Pressure Air Temp Water Temp Dewpoint Dewpoint Depression Visibility Wind Speed Wind Dir Waves Ship Positions

New Stream 2

Last reported at 2018-Feb-18 03:07 UTC. Time now 2018-Feb-20 07:39 UTC.
Position N 34°25' E 134°12'.

Length 54 m; draft 3.5 m.

Type: Tanker. MMSI: 431008234.

Date/timePositionNaut miles runAvg speedWind from/ knotsBaromVisibWave heightAir tempDewpointWater temp
2018-Feb-18 03:07N 34°25' E 134°12'611.7
2018-Feb-18 02:38N 34°23' E 134°18'212.2
2018-Feb-18 02:30N 34°22' E 134°20'611.7
2018-Feb-18 02:00N 34°20' E 134°27'611.6
2018-Feb-18 01:30N 34°17' E 134°33'611.0
2018-Feb-18 00:59N 34°15' E 134°39'712.2
2018-Feb-18 00:26N 34°09' E 134°44'511.5
2018-Feb-18 00:00N 34°05' E 134°48'611.5
2018-Feb-17 23:30N 34°01' E 134°52'611.5
2018-Feb-17 23:00N 33°57' E 134°57'611.2
2018-Feb-17 22:30N 33°53' E 135°01'99 7.9
2018-Feb-17 09:59N 34°29' E 136°52'510.5
2018-Feb-17 09:29N 34°33' E 136°48'510.5
2018-Feb-17 08:59N 34°36' E 136°43'510.8
2018-Feb-17 08:29N 34°38' E 136°37'3 6.2
2018-Feb-17 08:00N 34°37' E 136°33'0 0.0
2018-Feb-17 07:31N 34°37' E 136°33'0 0.0
2018-Feb-17 07:00N 34°37' E 136°33'0 0.0
2018-Feb-17 06:30N 34°37' E 136°33'0 0.0
2018-Feb-17 06:00N 34°37' E 136°33'0 0.0
2018-Feb-17 05:30N 34°37' E 136°33'0 0.0
2018-Feb-17 05:00N 34°37' E 136°33'1 1.6
2018-Feb-17 04:30N 34°37' E 136°34'9 9.1
2018-Feb-17 03:28N 34°35' E 136°45'93 6.6
2018-Feb-16 13:15N 33°49' E 135°06'311.3
2018-Feb-16 12:59N 33°52' E 135°04'510.8
2018-Feb-16 12:30N 33°57' E 135°02'611.2
2018-Feb-16 12:01N 34°02' E 135°03'511.0
2018-Feb-16 11:31N 34°08' E 135°03'611.1
2018-Feb-16 11:00N 34°13' E 135°03'510.3
2018-Feb-16 10:30N 34°18' E 135°04'510.7
2018-Feb-16 10:00N 34°23' E 135°07'611.3
2018-Feb-16 09:31N 34°28' E 135°11'611.1
2018-Feb-16 09:00N 34°33' E 135°14'611.1
2018-Feb-16 08:30N 34°38' E 135°17'5 9.8
2018-Feb-16 08:00N 34°42' E 135°18'0 0.1
2018-Feb-16 07:30N 34°42' E 135°18'0 0.0
2018-Feb-16 07:01N 34°42' E 135°18'0 0.0
2018-Feb-16 06:30N 34°42' E 135°18'0 0.0
2018-Feb-16 05:59N 34°42' E 135°18'0 0.0
2018-Feb-16 05:29N 34°42' E 135°18'0 0.0
2018-Feb-16 04:50N 34°42' E 135°18'0 0.0
2018-Feb-16 04:26N 34°42' E 135°18'0 0.0
2018-Feb-16 03:56N 34°42' E 135°18'0 0.0
2018-Feb-16 03:29N 34°42' E 135°18'0 0.0
2018-Feb-16 02:56N 34°42' E 135°18'0 0.0
2018-Feb-16 02:29N 34°42' E 135°18'0 0.0
2018-Feb-16 01:59N 34°42' E 135°18'3 5.4
2018-Feb-16 01:30N 34°40' E 135°18'611.3
2018-Feb-16 01:00N 34°35' E 135°16'611.8
2018-Feb-16 00:30N 34°29' E 135°12'612.1
2018-Feb-16 00:00N 34°24' E 135°09'612.1
2018-Feb-15 23:31N 34°19' E 135°05'612.1
2018-Feb-15 23:00N 34°13' E 135°03'611.8
2018-Feb-15 22:30N 34°07' E 135°02'611.7
2018-Feb-15 22:00N 34°01' E 135°02'95 7.5
2018-Feb-15 09:19N 34°29' E 136°52'2 7.6
2018-Feb-15 09:00N 34°31' E 136°50'510.5
2018-Feb-15 08:29N 34°34' E 136°45'511.0
2018-Feb-15 08:00N 34°38' E 136°40'510.7
2018-Feb-15 07:30N 34°37' E 136°34'0 1.0
2018-Feb-15 07:00N 34°37' E 136°33'0 0.0
2018-Feb-15 06:29N 34°37' E 136°33'0 0.0
2018-Feb-15 06:00N 34°37' E 136°33'0 0.1
2018-Feb-15 05:00N 34°37' E 136°34'1410.6
2018-Feb-15 03:40N 34°36' E 136°51'1610.3
2018-Feb-15 02:09N 34°34' E 137°09'310.7
2018-Feb-15 01:51N 34°34' E 137°13'5110.4
2018-Feb-14 20:54N 34°33' E 138°16'7 9.2
2018-Feb-14 20:09N 34°33' E 138°24'3 9.3
2018-Feb-14 19:52N 34°33' E 138°27'4 8.9
2018-Feb-14 19:27N 34°34' E 138°32'5 9.0
2018-Feb-14 18:54N 34°34' E 138°38'4 9.4
2018-Feb-14 18:30N 34°35' E 138°42'5 9.0
2018-Feb-14 17:58N 34°35' E 138°48'5 8.1
2018-Feb-14 17:24N 34°35' E 138°53'4 8.4
2018-Feb-14 16:59N 34°36' E 138°58'510.0
2018-Feb-14 16:30N 34°40' E 139°01'8 9.5
2018-Feb-14 15:38N 34°47' E 139°06'8 7.7
2018-Feb-14 14:38N 34°53' E 139°12'3 6.6
2018-Feb-14 14:15N 34°55' E 139°15'2 6.6
2018-Feb-14 13:59N 34°56' E 139°16'4 7.4
2018-Feb-14 13:29N 34°58' E 139°20'4 7.5
2018-Feb-14 13:00N 34°60' E 139°24'3 6.3
2018-Feb-14 12:29N 35°02' E 139°27'3 5.2
2018-Feb-14 12:00N 35°03' E 139°29'3 5.6
2018-Feb-14 11:28N 35°05' E 139°33'3 5.7
2018-Feb-14 11:00N 35°05' E 139°36'3 5.7
2018-Feb-14 10:30N 35°06' E 139°39'4 7.0
2018-Feb-14 10:00N 35°08' E 139°43'4 8.3
2018-Feb-14 09:29N 35°12' E 139°45'4 8.9
2018-Feb-14 09:00N 35°16' E 139°46'611.2
2018-Feb-14 08:31N 35°21' E 139°42'510.6
2018-Feb-14 08:01N 35°26' E 139°42'3 6.2
2018-Feb-14 07:30N 35°29' E 139°40'0 0.0
2018-Feb-14 07:00N 35°29' E 139°40'0 0.0
2018-Feb-14 06:30N 35°29' E 139°40'0 0.0
2018-Feb-14 05:48N 35°29' E 139°40'0 0.0
2018-Feb-14 05:27N 35°29' E 139°40'0 0.0
2018-Feb-14 05:00N 35°29' E 139°40'0 0.0
2018-Feb-14 04:30N 35°29' E 139°40'0 0.0
2018-Feb-14 04:00N 35°29' E 139°40'0 0.0
2018-Feb-14 03:30N 35°29' E 139°40'0 0.0
2018-Feb-14 03:00N 35°29' E 139°40'0 0.0
2018-Feb-14 02:30N 35°29' E 139°40'0 0.0
2018-Feb-14 02:00N 35°29' E 139°40'0 0.0
2018-Feb-14 01:21N 35°29' E 139°40'0 0.0
2018-Feb-14 01:00N 35°29' E 139°40'0 0.0
2018-Feb-14 00:30N 35°29' E 139°40'0 0.0
2018-Feb-13 23:57N 35°29' E 139°40'0 0.0
2018-Feb-13 23:30N 35°29' E 139°40'0 0.0
2018-Feb-13 23:00N 35°29' E 139°40'0 0.0
2018-Feb-13 22:27N 35°29' E 139°40'0 0.0
2018-Feb-13 22:00N 35°29' E 139°40'0 0.0
2018-Feb-13 21:30N 35°29' E 139°40'0 0.0
2018-Feb-13 21:00N 35°29' E 139°40'0 0.0
2018-Feb-13 20:30N 35°29' E 139°40'0 0.0
2018-Feb-13 19:57N 35°29' E 139°40'0 0.0
2018-Feb-13 19:30N 35°29' E 139°40'0 0.0
2018-Feb-13 19:00N 35°29' E 139°40'0 0.0
2018-Feb-13 18:30N 35°29' E 139°40'0 0.0
2018-Feb-13 18:00N 35°29' E 139°40'0 0.0
2018-Feb-13 17:30N 35°29' E 139°40'0 0.0
2018-Feb-13 17:00N 35°29' E 139°40'0 0.0
2018-Feb-13 16:30N 35°29' E 139°40'0 0.0
2018-Feb-13 15:57N 35°29' E 139°40'0 0.0
2018-Feb-13 15:27N 35°29' E 139°40'0 0.0
2018-Feb-13 15:00N 35°29' E 139°40'0 0.0
2018-Feb-13 14:27N 35°29' E 139°40'0 0.0
2018-Feb-13 14:00N 35°29' E 139°40'0 0.0
2018-Feb-13 13:30N 35°29' E 139°40'0 0.0
2018-Feb-13 13:00N 35°29' E 139°40'0 0.0
2018-Feb-13 12:30N 35°29' E 139°40'0 0.0
2018-Feb-13 11:57N 35°29' E 139°40'0 0.0
2018-Feb-13 11:30N 35°29' E 139°40'0 0.0
2018-Feb-13 11:00N 35°29' E 139°40'0 0.0
2018-Feb-13 10:30N 35°29' E 139°40'0 0.0
2018-Feb-13 10:00N 35°29' E 139°40'0 0.0
2018-Feb-13 09:30N 35°29' E 139°40'0 0.0
2018-Feb-13 09:00N 35°29' E 139°40'0 0.0
2018-Feb-13 08:30N 35°29' E 139°40'0 0.0
2018-Feb-13 08:00N 35°29' E 139°40'0 0.0
2018-Feb-13 07:30N 35°29' E 139°40'0 0.0
2018-Feb-13 06:57N 35°29' E 139°40'0 0.0
2018-Feb-13 06:30N 35°29' E 139°40'0 0.0
2018-Feb-13 06:00N 35°29' E 139°40'0 0.0
2018-Feb-13 05:27N 35°29' E 139°40'0 0.0
2018-Feb-13 05:00N 35°29' E 139°40'0 0.0
2018-Feb-13 04:30N 35°29' E 139°40'0 0.0
2018-Feb-13 04:00N 35°29' E 139°40'0 0.0
2018-Feb-13 03:30N 35°29' E 139°40'0 0.0
2018-Feb-13 02:57N 35°29' E 139°40'0 0.0
2018-Feb-13 02:30N 35°29' E 139°40'0 0.0
2018-Feb-13 01:57N 35°29' E 139°40'0 0.0
2018-Feb-13 01:30N 35°29' E 139°40'0 0.0
2018-Feb-13 01:00N 35°29' E 139°40'0 0.0
2018-Feb-13 00:30N 35°29' E 139°40'0 0.0
2018-Feb-12 23:57N 35°29' E 139°40'0 0.0
2018-Feb-12 23:30N 35°29' E 139°40'0 0.0
2018-Feb-12 22:57N 35°29' E 139°40'0 0.0
2018-Feb-12 22:30N 35°29' E 139°40'0 0.0
2018-Feb-12 21:54N 35°29' E 139°40'0 0.0
2018-Feb-12 21:30N 35°29' E 139°40'0 0.0
2018-Feb-12 21:00N 35°29' E 139°40'0 0.0
2018-Feb-12 20:30N 35°29' E 139°40'0 0.0
2018-Feb-12 20:00N 35°29' E 139°40'0 0.0
2018-Feb-12 19:27N 35°29' E 139°40'0 0.0
2018-Feb-12 19:00N 35°29' E 139°40'0 0.0
2018-Feb-12 18:30N 35°29' E 139°40'0 0.0
2018-Feb-12 18:00N 35°29' E 139°40'0 0.0
2018-Feb-12 17:30N 35°29' E 139°40'0 0.0
2018-Feb-12 17:00N 35°29' E 139°40'0 0.0
2018-Feb-12 16:30N 35°29' E 139°40'0 0.0
2018-Feb-12 16:00N 35°29' E 139°40'0 0.0
2018-Feb-12 15:30N 35°29' E 139°40'0 0.0
2018-Feb-12 15:00N 35°29' E 139°40'0 0.0
2018-Feb-12 14:30N 35°29' E 139°40'0 0.0
2018-Feb-12 13:57N 35°29' E 139°40'0 0.0
2018-Feb-12 13:30N 35°29' E 139°40'0 0.0
2018-Feb-12 13:00N 35°29' E 139°40'0 0.0
2018-Feb-12 12:30N 35°29' E 139°40'0 0.0
2018-Feb-12 12:00N 35°29' E 139°40'0 0.0
2018-Feb-12 11:30N 35°29' E 139°40'0 0.0
2018-Feb-12 11:00N 35°29' E 139°40'0 0.0
2018-Feb-12 10:30N 35°29' E 139°40'0 0.0
2018-Feb-12 10:00N 35°29' E 139°40'0 0.0
2018-Feb-12 09:27N 35°29' E 139°40'0 0.0
2018-Feb-12 09:00N 35°29' E 139°40'0 0.0
2018-Feb-12 08:30N 35°29' E 139°40'0 0.0
2018-Feb-12 08:00N 35°29' E 139°40'0 0.0
2018-Feb-12 07:30N 35°29' E 139°40'0 0.0
2018-Feb-12 07:00N 35°29' E 139°40'0 0.0
2018-Feb-12 06:30N 35°29' E 139°40'0 0.0
2018-Feb-12 06:00N 35°29' E 139°40'0 0.0
2018-Feb-12 05:30N 35°29' E 139°40'0 0.0
2018-Feb-12 04:57N 35°29' E 139°40'0 0.0
2018-Feb-12 04:30N 35°29' E 139°40'0 0.0
2018-Feb-12 03:57N 35°29' E 139°40'0 0.0
2018-Feb-12 03:30N 35°29' E 139°40'0 0.0
2018-Feb-12 03:00N 35°29' E 139°40'0 0.0
2018-Feb-12 02:30N 35°29' E 139°40'0 0.0
2018-Feb-12 02:00N 35°29' E 139°40'0 0.0
2018-Feb-12 01:27N 35°29' E 139°40'0 0.0
2018-Feb-12 01:00N 35°29' E 139°40'0 0.0
2018-Feb-12 00:30N 35°29' E 139°40'0 0.0
2018-Feb-11 23:57N 35°29' E 139°40'0 0.0
2018-Feb-11 23:30N 35°29' E 139°40'0 0.0
2018-Feb-11 23:00N 35°29' E 139°40'0 0.0
2018-Feb-11 22:30N 35°29' E 139°40'0 0.0
2018-Feb-11 22:00N 35°29' E 139°40'0 0.0
2018-Feb-11 21:30N 35°29' E 139°40'0 0.0
2018-Feb-11 21:00N 35°29' E 139°40'0 0.0
2018-Feb-11 20:27N 35°29' E 139°40'0 0.0
2018-Feb-11 20:00N 35°29' E 139°40'0 0.0
2018-Feb-11 19:30N 35°29' E 139°40'0 0.0
2018-Feb-11 19:00N 35°29' E 139°40'0 0.0
2018-Feb-11 18:30N 35°29' E 139°40'0 0.0
2018-Feb-11 18:00N 35°29' E 139°40'0 0.0
2018-Feb-11 17:30N 35°29' E 139°40'0 0.0
2018-Feb-11 17:00N 35°29' E 139°40'0 0.0
2018-Feb-11 16:24N 35°29' E 139°40'0 0.0
2018-Feb-11 16:00N 35°29' E 139°40'0 0.0
2018-Feb-11 15:30N 35°29' E 139°40'0 0.0
2018-Feb-11 15:00N 35°29' E 139°40'0 0.0
2018-Feb-11 14:30N 35°29' E 139°40'0 0.0
2018-Feb-11 13:57N 35°29' E 139°40'0 0.0
2018-Feb-11 13:30N 35°29' E 139°40'0 0.0
2018-Feb-11 13:00N 35°29' E 139°40'0 0.0
2018-Feb-11 12:30N 35°29' E 139°40'0 0.0
2018-Feb-11 12:00N 35°29' E 139°40'0 0.0
2018-Feb-11 11:30N 35°29' E 139°40'0 0.0
2018-Feb-11 11:00N 35°29' E 139°40'0 0.0
2018-Feb-11 10:30N 35°29' E 139°40'0 0.0
2018-Feb-11 10:00N 35°29' E 139°40'0 0.0
2018-Feb-11 09:30N 35°29' E 139°40'0 0.0
2018-Feb-11 09:00N 35°29' E 139°40'0 0.0
2018-Feb-11 08:30N 35°29' E 139°40'0 0.0
2018-Feb-11 07:57N 35°29' E 139°40'0 0.0
2018-Feb-11 07:30N 35°29' E 139°40'0 0.0
2018-Feb-11 07:00N 35°29' E 139°40'0 0.0
2018-Feb-11 06:30N 35°29' E 139°40'0 0.0
2018-Feb-11 06:00N 35°29' E 139°40'0 0.0
2018-Feb-11 05:30N 35°29' E 139°40'0 0.0
2018-Feb-11 05:00N 35°29' E 139°40'0 0.0
2018-Feb-11 04:30N 35°29' E 139°40'0 0.0
2018-Feb-11 04:00N 35°29' E 139°40'0 0.0
2018-Feb-11 03:30N 35°29' E 139°40'0 0.0
2018-Feb-11 03:00N 35°29' E 139°40'0 0.0
2018-Feb-11 02:30N 35°29' E 139°40'0 0.0
2018-Feb-11 02:00N 35°29' E 139°40'0 0.0
2018-Feb-11 01:30N 35°29' E 139°40'0 0.0
2018-Feb-11 01:00N 35°29' E 139°40'0 0.0
2018-Feb-11 00:30N 35°29' E 139°40'0 0.0
2018-Feb-10 23:57N 35°29' E 139°40'0 0.0
2018-Feb-10 23:30N 35°29' E 139°40'0 0.5
2018-Feb-10 23:00N 35°29' E 139°40'2 4.9
2018-Feb-10 22:30N 35°27' E 139°42'0 0.0
2018-Feb-10 21:58N 35°27' E 139°42'0 0.1
2018-Feb-10 21:28N 35°27' E 139°42'0 0.0
2018-Feb-10 20:58N 35°27' E 139°42'0 0.0
2018-Feb-10 20:28N 35°27' E 139°42'0 0.0
2018-Feb-10 19:58N 35°27' E 139°42'0 0.0
2018-Feb-10 19:28N 35°27' E 139°42'0 0.0
2018-Feb-10 18:58N 35°27' E 139°42'0 0.0
2018-Feb-10 18:28N 35°27' E 139°42'0 0.2
2018-Feb-10 17:58N 35°27' E 139°42'0 0.1
2018-Feb-10 17:28N 35°27' E 139°42'0 0.0
2018-Feb-10 16:58N 35°27' E 139°42'0 0.0
2018-Feb-10 16:28N 35°27' E 139°42'0 0.0
2018-Feb-10 15:58N 35°27' E 139°42'0 0.0
2018-Feb-10 15:28N 35°27' E 139°42'0 0.1
2018-Feb-10 14:58N 35°27' E 139°42'0 0.0
2018-Feb-10 14:28N 35°27' E 139°42'0 0.0
2018-Feb-10 13:58N 35°27' E 139°42'0 0.0
2018-Feb-10 13:28N 35°27' E 139°42'2 4.5
2018-Feb-10 13:00N 35°25' E 139°43'611.4
2018-Feb-10 12:30N 35°19' E 139°43'611.1
2018-Feb-10 12:00N 35°14' E 139°47'611.5
2018-Feb-10 11:30N 35°09' E 139°45'711.7
2018-Feb-10 10:52N 35°03' E 139°40'2612.9
2018-Feb-10 08:52N 34°46' E 139°16'613.9
2018-Feb-10 08:28N 34°42' E 139°11'714.2
2018-Feb-10 08:00N 34°39' E 139°04'713.8
2018-Feb-10 07:30N 34°36' E 138°57'612.7
2018-Feb-10 07:00N 34°35' E 138°49'191 9.8
2018-Feb-09 11:31N 33°56' E 135°03'1811.9
2018-Feb-09 10:00N 34°14' E 135°03'2911.6
2018-Feb-09 07:30N 34°40' E 135°18'9 0.3
2018-Feb-08 03:30N 34°31' E 135°19'  
Track history (hours):
 
Tides and Currents Weather Stations Pressure Air Temp Water Temp Dewpoint Dewpoint Depression Visibility Wind Speed Wind Dir Waves Ship Positions

New Stream 2

Last reported at 2018-Feb-18 03:07 UTC. Time now 2018-Feb-20 07:39 UTC.
Position N 34°25' E 134°12'.

Length 54 m; draft 3.5 m.

Type: Tanker. MMSI: 431008234.

Date/timePositionNaut miles runAvg speedWind from/ knotsBaromVisibWave heightAir tempDewpointWater temp
2018-Feb-18 03:07N 34°25' E 134°12'611.7
2018-Feb-18 02:38N 34°23' E 134°18'212.2
2018-Feb-18 02:30N 34°22' E 134°20'611.7
2018-Feb-18 02:00N 34°20' E 134°27'611.6
2018-Feb-18 01:30N 34°17' E 134°33'611.0
2018-Feb-18 00:59N 34°15' E 134°39'712.2
2018-Feb-18 00:26N 34°09' E 134°44'511.5
2018-Feb-18 00:00N 34°05' E 134°48'611.5
2018-Feb-17 23:30N 34°01' E 134°52'611.5
2018-Feb-17 23:00N 33°57' E 134°57'611.2
2018-Feb-17 22:30N 33°53' E 135°01'99 7.9
2018-Feb-17 09:59N 34°29' E 136°52'510.5
2018-Feb-17 09:29N 34°33' E 136°48'510.5
2018-Feb-17 08:59N 34°36' E 136°43'510.8
2018-Feb-17 08:29N 34°38' E 136°37'3 6.2
2018-Feb-17 08:00N 34°37' E 136°33'0 0.0
2018-Feb-17 07:31N 34°37' E 136°33'0 0.0
2018-Feb-17 07:00N 34°37' E 136°33'0 0.0
2018-Feb-17 06:30N 34°37' E 136°33'0 0.0
2018-Feb-17 06:00N 34°37' E 136°33'0 0.0
2018-Feb-17 05:30N 34°37' E 136°33'0 0.0
2018-Feb-17 05:00N 34°37' E 136°33'1 1.6
2018-Feb-17 04:30N 34°37' E 136°34'9 9.1
2018-Feb-17 03:28N 34°35' E 136°45'93 6.6
2018-Feb-16 13:15N 33°49' E 135°06'311.3
2018-Feb-16 12:59N 33°52' E 135°04'510.8
2018-Feb-16 12:30N 33°57' E 135°02'611.2
2018-Feb-16 12:01N 34°02' E 135°03'511.0
2018-Feb-16 11:31N 34°08' E 135°03'611.1
2018-Feb-16 11:00N 34°13' E 135°03'510.3
2018-Feb-16 10:30N 34°18' E 135°04'510.7
2018-Feb-16 10:00N 34°23' E 135°07'611.3
2018-Feb-16 09:31N 34°28' E 135°11'611.1
2018-Feb-16 09:00N 34°33' E 135°14'611.1
2018-Feb-16 08:30N 34°38' E 135°17'5 9.8
2018-Feb-16 08:00N 34°42' E 135°18'0 0.1
2018-Feb-16 07:30N 34°42' E 135°18'0 0.0
2018-Feb-16 07:01N 34°42' E 135°18'0 0.0
2018-Feb-16 06:30N 34°42' E 135°18'0 0.0
2018-Feb-16 05:59N 34°42' E 135°18'0 0.0
2018-Feb-16 05:29N 34°42' E 135°18'0 0.0
2018-Feb-16 04:50N 34°42' E 135°18'0 0.0
2018-Feb-16 04:26N 34°42' E 135°18'0 0.0
2018-Feb-16 03:56N 34°42' E 135°18'0 0.0
2018-Feb-16 03:29N 34°42' E 135°18'0 0.0
2018-Feb-16 02:56N 34°42' E 135°18'0 0.0
2018-Feb-16 02:29N 34°42' E 135°18'0 0.0
2018-Feb-16 01:59N 34°42' E 135°18'3 5.4
2018-Feb-16 01:30N 34°40' E 135°18'611.3
2018-Feb-16 01:00N 34°35' E 135°16'611.8
2018-Feb-16 00:30N 34°29' E 135°12'612.1
2018-Feb-16 00:00N 34°24' E 135°09'612.1
2018-Feb-15 23:31N 34°19' E 135°05'612.1
2018-Feb-15 23:00N 34°13' E 135°03'611.8
2018-Feb-15 22:30N 34°07' E 135°02'611.7
2018-Feb-15 22:00N 34°01' E 135°02'95 7.5
2018-Feb-15 09:19N 34°29' E 136°52'2 7.6
2018-Feb-15 09:00N 34°31' E 136°50'510.5
2018-Feb-15 08:29N 34°34' E 136°45'511.0
2018-Feb-15 08:00N 34°38' E 136°40'510.7
2018-Feb-15 07:30N 34°37' E 136°34'0 1.0
2018-Feb-15 07:00N 34°37' E 136°33'0 0.0
2018-Feb-15 06:29N 34°37' E 136°33'0 0.0
2018-Feb-15 06:00N 34°37' E 136°33'0 0.1
2018-Feb-15 05:00N 34°37' E 136°34'1410.6
2018-Feb-15 03:40N 34°36' E 136°51'1610.3
2018-Feb-15 02:09N 34°34' E 137°09'310.7
2018-Feb-15 01:51N 34°34' E 137°13'5110.4
2018-Feb-14 20:54N 34°33' E 138°16'7 9.2
2018-Feb-14 20:09N 34°33' E 138°24'3 9.3
2018-Feb-14 19:52N 34°33' E 138°27'4 8.9
2018-Feb-14 19:27N 34°34' E 138°32'5 9.0
2018-Feb-14 18:54N 34°34' E 138°38'4 9.4
2018-Feb-14 18:30N 34°35' E 138°42'5 9.0
2018-Feb-14 17:58N 34°35' E 138°48'5 8.1
2018-Feb-14 17:24N 34°35' E 138°53'4 8.4
2018-Feb-14 16:59N 34°36' E 138°58'510.0
2018-Feb-14 16:30N 34°40' E 139°01'8 9.5
2018-Feb-14 15:38N 34°47' E 139°06'8 7.7
2018-Feb-14 14:38N 34°53' E 139°12'3 6.6
2018-Feb-14 14:15N 34°55' E 139°15'2 6.6
2018-Feb-14 13:59N 34°56' E 139°16'4 7.4
2018-Feb-14 13:29N 34°58' E 139°20'4 7.5
2018-Feb-14 13:00N 34°60' E 139°24'3 6.3
2018-Feb-14 12:29N 35°02' E 139°27'3 5.2
2018-Feb-14 12:00N 35°03' E 139°29'3 5.6
2018-Feb-14 11:28N 35°05' E 139°33'3 5.7
2018-Feb-14 11:00N 35°05' E 139°36'3 5.7
2018-Feb-14 10:30N 35°06' E 139°39'4 7.0
2018-Feb-14 10:00N 35°08' E 139°43'4 8.3
2018-Feb-14 09:29N 35°12' E 139°45'4 8.9
2018-Feb-14 09:00N 35°16' E 139°46'611.2
2018-Feb-14 08:31N 35°21' E 139°42'510.6
2018-Feb-14 08:01N 35°26' E 139°42'3 6.2
2018-Feb-14 07:30N 35°29' E 139°40'0 0.0
2018-Feb-14 07:00N 35°29' E 139°40'0 0.0
2018-Feb-14 06:30N 35°29' E 139°40'0 0.0
2018-Feb-14 05:48N 35°29' E 139°40'0 0.0
2018-Feb-14 05:27N 35°29' E 139°40'0 0.0
2018-Feb-14 05:00N 35°29' E 139°40'0 0.0
2018-Feb-14 04:30N 35°29' E 139°40'0 0.0
2018-Feb-14 04:00N 35°29' E 139°40'0 0.0
2018-Feb-14 03:30N 35°29' E 139°40'0 0.0
2018-Feb-14 03:00N 35°29' E 139°40'0 0.0
2018-Feb-14 02:30N 35°29' E 139°40'0 0.0
2018-Feb-14 02:00N 35°29' E 139°40'0 0.0
2018-Feb-14 01:21N 35°29' E 139°40'0 0.0
2018-Feb-14 01:00N 35°29' E 139°40'0 0.0
2018-Feb-14 00:30N 35°29' E 139°40'0 0.0
2018-Feb-13 23:57N 35°29' E 139°40'0 0.0
2018-Feb-13 23:30N 35°29' E 139°40'0 0.0
2018-Feb-13 23:00N 35°29' E 139°40'0 0.0
2018-Feb-13 22:27N 35°29' E 139°40'0 0.0
2018-Feb-13 22:00N 35°29' E 139°40'0 0.0
2018-Feb-13 21:30N 35°29' E 139°40'0 0.0
2018-Feb-13 21:00N 35°29' E 139°40'0 0.0
2018-Feb-13 20:30N 35°29' E 139°40'0 0.0
2018-Feb-13 19:57N 35°29' E 139°40'0 0.0
2018-Feb-13 19:30N 35°29' E 139°40'0 0.0
2018-Feb-13 19:00N 35°29' E 139°40'0 0.0
2018-Feb-13 18:30N 35°29' E 139°40'0 0.0
2018-Feb-13 18:00N 35°29' E 139°40'0 0.0
2018-Feb-13 17:30N 35°29' E 139°40'0 0.0
2018-Feb-13 17:00N 35°29' E 139°40'0 0.0
2018-Feb-13 16:30N 35°29' E 139°40'0 0.0
2018-Feb-13 15:57N 35°29' E 139°40'0 0.0
2018-Feb-13 15:27N 35°29' E 139°40'0 0.0
2018-Feb-13 15:00N 35°29' E 139°40'0 0.0
2018-Feb-13 14:27N 35°29' E 139°40'0 0.0
2018-Feb-13 14:00N 35°29' E 139°40'0 0.0
2018-Feb-13 13:30N 35°29' E 139°40'0 0.0
2018-Feb-13 13:00N 35°29' E 139°40'0 0.0
2018-Feb-13 12:30N 35°29' E 139°40'0 0.0
2018-Feb-13 11:57N 35°29' E 139°40'0 0.0
2018-Feb-13 11:30N 35°29' E 139°40'0 0.0
2018-Feb-13 11:00N 35°29' E 139°40'0 0.0
2018-Feb-13 10:30N 35°29' E 139°40'0 0.0
2018-Feb-13 10:00N 35°29' E 139°40'0 0.0
2018-Feb-13 09:30N 35°29' E 139°40'0 0.0
2018-Feb-13 09:00N 35°29' E 139°40'0 0.0
2018-Feb-13 08:30N 35°29' E 139°40'0 0.0
2018-Feb-13 08:00N 35°29' E 139°40'0 0.0
2018-Feb-13 07:30N 35°29' E 139°40'0 0.0
2018-Feb-13 06:57N 35°29' E 139°40'0 0.0
2018-Feb-13 06:30N 35°29' E 139°40'0 0.0
2018-Feb-13 06:00N 35°29' E 139°40'0 0.0
2018-Feb-13 05:27N 35°29' E 139°40'0 0.0
2018-Feb-13 05:00N 35°29' E 139°40'0 0.0
2018-Feb-13 04:30N 35°29' E 139°40'0 0.0
2018-Feb-13 04:00N 35°29' E 139°40'0 0.0
2018-Feb-13 03:30N 35°29' E 139°40'0 0.0
2018-Feb-13 02:57N 35°29' E 139°40'0 0.0
2018-Feb-13 02:30N 35°29' E 139°40'0 0.0
2018-Feb-13 01:57N 35°29' E 139°40'0 0.0
2018-Feb-13 01:30N 35°29' E 139°40'0 0.0
2018-Feb-13 01:00N 35°29' E 139°40'0 0.0
2018-Feb-13 00:30N 35°29' E 139°40'0 0.0
2018-Feb-12 23:57N 35°29' E 139°40'0 0.0
2018-Feb-12 23:30N 35°29' E 139°40'0 0.0
2018-Feb-12 22:57N 35°29' E 139°40'0 0.0
2018-Feb-12 22:30N 35°29' E 139°40'0 0.0
2018-Feb-12 21:54N 35°29' E 139°40'0 0.0
2018-Feb-12 21:30N 35°29' E 139°40'0 0.0
2018-Feb-12 21:00N 35°29' E 139°40'0 0.0
2018-Feb-12 20:30N 35°29' E 139°40'0 0.0
2018-Feb-12 20:00N 35°29' E 139°40'0 0.0
2018-Feb-12 19:27N 35°29' E 139°40'0 0.0
2018-Feb-12 19:00N 35°29' E 139°40'0 0.0
2018-Feb-12 18:30N 35°29' E 139°40'0 0.0
2018-Feb-12 18:00N 35°29' E 139°40'0 0.0
2018-Feb-12 17:30N 35°29' E 139°40'0 0.0
2018-Feb-12 17:00N 35°29' E 139°40'0 0.0
2018-Feb-12 16:30N 35°29' E 139°40'0 0.0
2018-Feb-12 16:00N 35°29' E 139°40'0 0.0
2018-Feb-12 15:30N 35°29' E 139°40'0 0.0
2018-Feb-12 15:00N 35°29' E 139°40'0 0.0
2018-Feb-12 14:30N 35°29' E 139°40'0 0.0
2018-Feb-12 13:57N 35°29' E 139°40'0 0.0
2018-Feb-12 13:30N 35°29' E 139°40'0 0.0
2018-Feb-12 13:00N 35°29' E 139°40'0 0.0
2018-Feb-12 12:30N 35°29' E 139°40'0 0.0
2018-Feb-12 12:00N 35°29' E 139°40'0 0.0
2018-Feb-12 11:30N 35°29' E 139°40'0 0.0
2018-Feb-12 11:00N 35°29' E 139°40'0 0.0
2018-Feb-12 10:30N 35°29' E 139°40'0 0.0
2018-Feb-12 10:00N 35°29' E 139°40'0 0.0
2018-Feb-12 09:27N 35°29' E 139°40'0 0.0
2018-Feb-12 09:00N 35°29' E 139°40'0 0.0
2018-Feb-12 08:30N 35°29' E 139°40'0 0.0
2018-Feb-12 08:00N 35°29' E 139°40'0 0.0
2018-Feb-12 07:30N 35°29' E 139°40'0 0.0
2018-Feb-12 07:00N 35°29' E 139°40'0 0.0
2018-Feb-12 06:30N 35°29' E 139°40'0 0.0
2018-Feb-12 06:00N 35°29' E 139°40'0 0.0
2018-Feb-12 05:30N 35°29' E 139°40'0 0.0
2018-Feb-12 04:57N 35°29' E 139°40'0 0.0
2018-Feb-12 04:30N 35°29' E 139°40'0 0.0
2018-Feb-12 03:57N 35°29' E 139°40'0 0.0
2018-Feb-12 03:30N 35°29' E 139°40'0 0.0
2018-Feb-12 03:00N 35°29' E 139°40'0 0.0
2018-Feb-12 02:30N 35°29' E 139°40'0 0.0
2018-Feb-12 02:00N 35°29' E 139°40'0 0.0
2018-Feb-12 01:27N 35°29' E 139°40'0 0.0
2018-Feb-12 01:00N 35°29' E 139°40'0 0.0
2018-Feb-12 00:30N 35°29' E 139°40'0 0.0
2018-Feb-11 23:57N 35°29' E 139°40'0 0.0
2018-Feb-11 23:30N 35°29' E 139°40'0 0.0
2018-Feb-11 23:00N 35°29' E 139°40'0 0.0
2018-Feb-11 22:30N 35°29' E 139°40'0 0.0
2018-Feb-11 22:00N 35°29' E 139°40'0 0.0
2018-Feb-11 21:30N 35°29' E 139°40'0 0.0
2018-Feb-11 21:00N 35°29' E 139°40'0 0.0
2018-Feb-11 20:27N 35°29' E 139°40'0 0.0
2018-Feb-11 20:00N 35°29' E 139°40'0 0.0
2018-Feb-11 19:30N 35°29' E 139°40'0 0.0
2018-Feb-11 19:00N 35°29' E 139°40'0 0.0
2018-Feb-11 18:30N 35°29' E 139°40'0 0.0
2018-Feb-11 18:00N 35°29' E 139°40'0 0.0
2018-Feb-11 17:30N 35°29' E 139°40'0 0.0
2018-Feb-11 17:00N 35°29' E 139°40'0 0.0
2018-Feb-11 16:24N 35°29' E 139°40'0 0.0
2018-Feb-11 16:00N 35°29' E 139°40'0 0.0
2018-Feb-11 15:30N 35°29' E 139°40'0 0.0
2018-Feb-11 15:00N 35°29' E 139°40'0 0.0
2018-Feb-11 14:30N 35°29' E 139°40'0 0.0
2018-Feb-11 13:57N 35°29' E 139°40'0 0.0
2018-Feb-11 13:30N 35°29' E 139°40'0 0.0
2018-Feb-11 13:00N 35°29' E 139°40'0 0.0
2018-Feb-11 12:30N 35°29' E 139°40'0 0.0
2018-Feb-11 12:00N 35°29' E 139°40'0 0.0
2018-Feb-11 11:30N 35°29' E 139°40'0 0.0
2018-Feb-11 11:00N 35°29' E 139°40'0 0.0
2018-Feb-11 10:30N 35°29' E 139°40'0 0.0
2018-Feb-11 10:00N 35°29' E 139°40'0 0.0
2018-Feb-11 09:30N 35°29' E 139°40'0 0.0
2018-Feb-11 09:00N 35°29' E 139°40'0 0.0
2018-Feb-11 08:30N 35°29' E 139°40'0 0.0
2018-Feb-11 07:57N 35°29' E 139°40'0 0.0
2018-Feb-11 07:30N 35°29' E 139°40'0 0.0
2018-Feb-11 07:00N 35°29' E 139°40'0 0.0
2018-Feb-11 06:30N 35°29' E 139°40'0 0.0
2018-Feb-11 06:00N 35°29' E 139°40'0 0.0
2018-Feb-11 05:30N 35°29' E 139°40'0 0.0
2018-Feb-11 05:00N 35°29' E 139°40'0 0.0
2018-Feb-11 04:30N 35°29' E 139°40'0 0.0
2018-Feb-11 04:00N 35°29' E 139°40'0 0.0
2018-Feb-11 03:30N 35°29' E 139°40'0 0.0
2018-Feb-11 03:00N 35°29' E 139°40'0 0.0
2018-Feb-11 02:30N 35°29' E 139°40'0 0.0
2018-Feb-11 02:00N 35°29' E 139°40'0 0.0
2018-Feb-11 01:30N 35°29' E 139°40'0 0.0
2018-Feb-11 01:00N 35°29' E 139°40'0 0.0
2018-Feb-11 00:30N 35°29' E 139°40'0 0.0
2018-Feb-10 23:57N 35°29' E 139°40'0 0.0
2018-Feb-10 23:30N 35°29' E 139°40'0 0.5
2018-Feb-10 23:00N 35°29' E 139°40'2 4.9
2018-Feb-10 22:30N 35°27' E 139°42'0 0.0
2018-Feb-10 21:58N 35°27' E 139°42'0 0.1
2018-Feb-10 21:28N 35°27' E 139°42'0 0.0
2018-Feb-10 20:58N 35°27' E 139°42'0 0.0
2018-Feb-10 20:28N 35°27' E 139°42'0 0.0
2018-Feb-10 19:58N 35°27' E 139°42'0 0.0
2018-Feb-10 19:28N 35°27' E 139°42'0 0.0
2018-Feb-10 18:58N 35°27' E 139°42'0 0.0
2018-Feb-10 18:28N 35°27' E 139°42'0 0.2
2018-Feb-10 17:58N 35°27' E 139°42'0 0.1
2018-Feb-10 17:28N 35°27' E 139°42'0 0.0
2018-Feb-10 16:58N 35°27' E 139°42'0 0.0
2018-Feb-10 16:28N 35°27' E 139°42'0 0.0
2018-Feb-10 15:58N 35°27' E 139°42'0 0.0
2018-Feb-10 15:28N 35°27' E 139°42'0 0.1
2018-Feb-10 14:58N 35°27' E 139°42'0 0.0
2018-Feb-10 14:28N 35°27' E 139°42'0 0.0
2018-Feb-10 13:58N 35°27' E 139°42'0 0.0
2018-Feb-10 13:28N 35°27' E 139°42'2 4.5
2018-Feb-10 13:00N 35°25' E 139°43'611.4
2018-Feb-10 12:30N 35°19' E 139°43'611.1
2018-Feb-10 12:00N 35°14' E 139°47'611.5
2018-Feb-10 11:30N 35°09' E 139°45'711.7
2018-Feb-10 10:52N 35°03' E 139°40'2612.9
2018-Feb-10 08:52N 34°46' E 139°16'613.9
2018-Feb-10 08:28N 34°42' E 139°11'714.2
2018-Feb-10 08:00N 34°39' E 139°04'713.8
2018-Feb-10 07:30N 34°36' E 138°57'612.7
2018-Feb-10 07:00N 34°35' E 138°49'191 9.8
2018-Feb-09 11:31N 33°56' E 135°03'1811.9
2018-Feb-09 10:00N 34°14' E 135°03'2911.6
2018-Feb-09 07:30N 34°40' E 135°18'9 0.3
2018-Feb-08 03:30N 34°31' E 135°19'  

Dump ship's entire track history